Time;durP1;ratioP1;P1;durP2;ratioP2;P2;SDS_P1;SDS_P2;PMS_P1;PMS_P2;Temp;Humidity;BMP_temperature;BMP_pressure;BME280_temperature;BME280_humidity;BME280_pressure;Samples;Min_cycle;Max_cycle;Signal;HPM_P1;HPM_P2
2023/08/01 00:00:49;;;;;;;2.63;2.30;;;22.90;69.10;22.40;95697.00;;;;5090652;28;20203;-84
2023/08/01 00:03:18;;;;;;;3.93;2.00;;;22.90;69.10;22.40;95694.00;;;;5072262;28;20543;-83
2023/08/01 00:05:45;;;;;;;3.50;1.87;;;22.90;69.40;22.40;95699.00;;;;5063612;28;20196;-83
2023/08/01 00:08:14;;;;;;;3.20;2.13;;;22.90;69.30;22.40;95695.00;;;;5078736;28;20193;-83
2023/08/01 00:10:42;;;;;;;1.77;1.67;;;22.90;69.30;22.40;95689.00;;;;5064503;28;20215;-82
2023/08/01 00:13:10;;;;;;;2.80;2.60;;;22.90;69.30;22.30;95680.00;;;;5080253;28;20303;-82
2023/08/01 00:15:38;;;;;;;3.47;2.20;;;22.90;69.20;22.40;95668.00;;;;5089142;28;20189;-83
2023/08/01 00:18:05;;;;;;;2.53;1.60;;;22.90;69.40;22.40;95671.00;;;;5077401;28;20272;-82
2023/08/01 00:20:34;;;;;;;3.37;1.80;;;22.90;69.50;22.40;95666.00;;;;5062475;28;20285;-82
2023/08/01 00:23:01;;;;;;;1.77;1.67;;;22.90;69.80;22.40;95661.00;;;;5076877;28;20222;-82
2023/08/01 00:25:28;;;;;;;2.40;1.67;;;22.90;69.80;22.40;95655.00;;;;5070336;28;20279;-82
2023/08/01 00:27:56;;;;;;;1.63;1.53;;;22.90;69.80;22.40;95653.00;;;;5060005;28;20220;-83
2023/08/01 00:30:23;;;;;;;2.77;1.90;;;22.90;70.60;22.40;95657.00;;;;5085804;28;20226;-84
2023/08/01 00:32:50;;;;;;;2.40;2.20;;;22.90;70.00;22.40;95652.00;;;;5076010;28;20222;-84
2023/08/01 00:35:18;;;;;;;2.60;1.70;;;23.00;70.10;22.40;95649.00;;;;5065695;28;20279;-83
2023/08/01 00:37:47;;;;;;;1.87;1.77;;;22.90;70.10;22.40;95648.00;;;;5062869;28;20220;-83
2023/08/01 00:40:14;;;;;;;2.20;1.60;;;23.00;70.40;22.50;95640.00;;;;5084557;28;20194;-83
2023/08/01 00:42:41;;;;;;;2.70;1.50;;;22.90;70.40;22.50;95636.00;;;;5093323;28;20206;-82
2023/08/01 00:45:10;;;;;;;1.73;1.63;;;23.00;70.50;22.50;95624.00;;;;5062397;28;20197;-84
2023/08/01 00:47:38;;;;;;;2.67;2.20;;;23.00;70.60;22.50;95619.00;;;;5077816;28;20301;-82
2023/08/01 00:50:07;;;;;;;2.03;1.83;;;23.00;70.50;22.50;95613.00;;;;5061091;28;20567;-82
2023/08/01 00:52:34;;;;;;;1.83;1.73;;;23.00;70.50;22.50;95613.00;;;;5090109;28;20668;-82
2023/08/01 00:55:05;;;;;;;3.57;1.90;;;23.00;71.30;22.50;95611.00;;;;5079670;28;20206;-82
2023/08/01 00:57:32;;;;;;;2.43;1.97;;;23.10;70.70;22.50;95601.00;;;;5072579;28;20211;-83
2023/08/01 00:59:59;;;;;;;2.40;2.00;;;23.10;70.40;22.50;95605.00;;;;5088881;28;20279;-82
2023/08/01 01:02:26;;;;;;;2.13;1.87;;;23.00;70.30;22.50;95602.00;;;;5074740;28;20231;-85
2023/08/01 01:04:54;;;;;;;2.33;1.67;;;23.00;70.40;22.50;95602.00;;;;5055571;28;20200;-83
2023/08/01 01:07:23;;;;;;;2.13;1.63;;;23.00;71.20;22.50;95591.00;;;;5054721;28;20215;-84
2023/08/01 01:09:52;;;;;;;2.10;1.80;;;23.10;70.60;22.50;95596.00;;;;5070814;28;20224;-85
2023/08/01 01:12:20;;;;;;;4.60;2.00;;;23.10;70.60;22.50;95590.00;;;;5073069;28;20216;-83
2023/08/01 01:14:48;;;;;;;2.00;1.80;;;23.10;70.70;22.50;95589.00;;;;5079600;28;20564;-84
2023/08/01 01:17:15;;;;;;;2.03;1.77;;;23.10;70.60;22.50;95571.00;;;;5045383;28;20599;-83
2023/08/01 01:19:42;;;;;;;2.73;2.10;;;23.00;70.60;22.50;95575.00;;;;5076598;28;20192;-82
2023/08/01 01:22:12;;;;;;;1.70;1.60;;;23.10;70.80;22.50;95574.00;;;;5080981;28;20209;-84
2023/08/01 01:24:42;;;;;;;2.37;2.10;;;23.00;71.00;22.50;95564.00;;;;5070356;28;20223;-83
2023/08/01 01:27:10;;;;;;;4.33;2.20;;;23.00;71.60;22.50;95561.00;;;;5073348;28;20262;-84
2023/08/01 01:29:39;;;;;;;2.40;2.20;;;23.00;71.00;22.50;95561.00;;;;5069028;28;20198;-84
2023/08/01 01:32:08;;;;;;;2.10;1.60;;;23.00;71.00;22.40;95560.00;;;;5090081;28;20226;-84
2023/08/01 01:34:35;;;;;;;3.03;2.40;;;23.00;71.20;22.40;95550.00;;;;5072663;28;20207;-83
2023/08/01 01:37:03;;;;;;;2.63;1.80;;;23.00;70.80;22.40;95555.00;;;;5055158;28;20880;-85
2023/08/01 01:39:32;;;;;;;2.27;1.87;;;23.00;71.50;22.40;95546.00;;;;5067875;28;20272;-84
2023/08/01 01:41:59;;;;;;;1.80;1.67;;;23.00;71.00;22.40;95545.00;;;;5076819;28;20200;-83
2023/08/01 01:44:26;;;;;;;1.77;1.67;;;22.90;70.90;22.40;95552.00;;;;5080494;28;20216;-82
2023/08/01 01:46:54;;;;;;;2.17;1.90;;;22.90;71.00;22.30;95540.00;;;;5072740;28;20220;-82
2023/08/01 01:49:21;;;;;;;3.27;1.90;;;23.00;71.40;22.30;95546.00;;;;5081364;28;20268;-84
2023/08/01 01:51:49;;;;;;;2.40;1.70;;;22.90;71.40;22.30;95542.00;;;;5055480;28;20221;-84
2023/08/01 01:54:16;;;;;;;3.23;2.00;;;22.90;71.50;22.30;95544.00;;;;5077482;28;20657;-82
2023/08/01 01:56:44;;;;;;;1.40;1.30;;;22.90;72.40;22.30;95542.00;;;;5078045;28;20218;-82
2023/08/01 01:59:12;;;;;;;1.97;1.87;;;22.90;71.80;22.40;95533.00;;;;5085312;28;20213;-83
2023/08/01 02:01:39;;;;;;;2.00;1.77;;;22.90;71.80;22.40;95527.00;;;;5079622;28;20192;-83
2023/08/01 02:04:07;;;;;;;2.03;1.80;;;22.90;71.80;22.40;95523.00;;;;5089486;28;20205;-82
2023/08/01 02:06:34;;;;;;;1.90;1.80;;;23.00;71.90;22.40;95520.00;;;;5081406;28;20215;-83
2023/08/01 02:09:01;;;;;;;2.03;1.90;;;22.90;71.70;22.40;95522.00;;;;5079039;28;20192;-83
2023/08/01 02:11:29;;;;;;;2.10;1.90;;;23.00;72.50;22.40;95512.00;;;;5080797;28;20267;-81
2023/08/01 02:13:57;;;;;;;1.90;1.80;;;22.90;71.70;22.40;95511.00;;;;5073311;28;20572;-82
2023/08/01 02:16:24;;;;;;;2.40;1.73;;;22.90;71.70;22.40;95508.00;;;;5076218;28;20703;-82
2023/08/01 02:18:52;;;;;;;1.90;1.60;;;22.90;71.70;22.40;95501.00;;;;5073697;28;20214;-83
2023/08/01 02:21:19;;;;;;;2.70;1.80;;;23.00;71.60;22.40;95493.00;;;;5080700;28;20205;-83
2023/08/01 02:23:46;;;;;;;1.97;1.77;;;22.90;71.40;22.40;95494.00;;;;5079962;28;20196;-83
2023/08/01 02:26:14;;;;;;;2.90;1.83;;;23.00;71.40;22.40;95488.00;;;;5069281;28;20304;-84
2023/08/01 02:28:41;;;;;;;2.00;1.80;;;23.00;71.30;22.40;95482.00;;;;5076887;28;20228;-85
2023/08/01 02:31:10;;;;;;;1.90;1.80;;;22.90;71.10;22.40;95488.00;;;;5072683;28;20223;-82
2023/08/01 02:33:37;;;;;;;2.73;1.70;;;23.00;71.10;22.30;95487.00;;;;5072809;28;20275;-82
2023/08/01 02:36:05;;;;;;;1.93;1.83;;;22.90;71.10;22.30;95483.00;;;;5082753;28;20216;-81
2023/08/01 02:38:32;;;;;;;1.87;1.77;;;23.00;71.20;22.30;95478.00;;;;5085500;28;20667;-83
2023/08/01 02:40:59;;;;;;;1.77;1.67;;;22.90;71.20;22.30;95477.00;;;;5069887;28;20195;-82
2023/08/01 02:43:27;;;;;;;1.80;1.70;;;22.90;71.40;22.30;95464.00;;;;5084697;28;20207;-81
2023/08/01 02:45:54;;;;;;;2.33;1.60;;;22.90;71.50;22.30;95473.00;;;;5059439;28;20212;-83
2023/08/01 02:48:23;;;;;;;2.13;1.77;;;22.90;71.50;22.30;95461.00;;;;5071513;28;20200;-81
2023/08/01 02:50:51;;;;;;;2.33;2.03;;;22.90;71.70;22.30;95463.00;;;;5078056;28;20195;-85
2023/08/01 02:53:18;;;;;;;1.93;1.63;;;22.80;71.50;22.30;95467.00;;;;5080654;28;20196;-82
2023/08/01 02:55:47;;;;;;;2.03;1.70;;;22.80;71.40;22.30;95462.00;;;;5077882;28;20195;-82
2023/08/01 02:58:15;;;;;;;2.33;1.70;;;22.80;71.50;22.30;95468.00;;;;5059963;28;20727;-82
2023/08/01 03:00:42;;;;;;;2.47;1.77;;;22.80;71.50;22.30;95467.00;;;;5068680;28;20611;-81
2023/08/01 03:03:10;;;;;;;1.47;1.37;;;22.80;71.50;22.30;95464.00;;;;5090519;28;20202;-82
2023/08/01 03:05:39;;;;;;;3.10;1.83;;;22.80;71.60;22.30;95464.00;;;;5077115;28;20215;-82
2023/08/01 03:08:06;;;;;;;1.97;1.87;;;22.80;71.70;22.30;95471.00;;;;5060474;28;20207;-81
2023/08/01 03:10:34;;;;;;;2.80;1.80;;;22.80;71.70;22.30;95472.00;;;;5089466;28;20286;-82
2023/08/01 03:13:01;;;;;;;1.70;1.60;;;22.80;71.90;22.30;95474.00;;;;5080204;28;20594;-82
2023/08/01 03:15:29;;;;;;;2.40;1.63;;;22.80;71.90;22.30;95478.00;;;;5077496;28;20203;-81
2023/08/01 03:17:56;;;;;;;2.17;2.00;;;22.80;72.10;22.30;95484.00;;;;5075757;28;20216;-81
2023/08/01 03:20:23;;;;;;;1.60;1.50;;;22.80;72.30;22.30;95486.00;;;;5072810;28;20497;-82
2023/08/01 03:22:52;;;;;;;2.40;1.70;;;22.80;72.20;22.30;95489.00;;;;5057305;28;20652;-83
2023/08/01 03:25:19;;;;;;;1.97;1.60;;;22.80;72.30;22.30;95494.00;;;;5073713;28;20198;-82
2023/08/01 03:27:46;;;;;;;2.00;1.90;;;22.80;72.30;22.30;95506.00;;;;5080725;28;20251;-83
2023/08/01 03:30:14;;;;;;;2.17;1.70;;;22.80;72.20;22.20;95516.00;;;;5078023;28;20319;-82
2023/08/01 03:32:41;;;;;;;4.60;1.80;;;22.80;72.10;22.20;95502.00;;;;5062328;28;20228;-81
2023/08/01 03:35:09;;;;;;;1.80;1.57;;;22.80;72.00;22.20;95507.00;;;;5064783;28;20203;-82
2023/08/01 03:37:36;;;;;;;2.00;1.90;;;22.70;71.20;22.20;95486.00;;;;5082068;28;20217;-82
2023/08/01 03:40:08;;;;;;;2.67;2.03;;;22.70;70.50;22.10;95498.00;;;;5084769;28;20267;-82
2023/08/01 03:42:35;;;;;;;1.97;1.77;;;22.70;70.70;22.10;95489.00;;;;5086396;28;20672;-81
2023/08/01 03:45:04;;;;;;;1.97;1.87;;;22.70;70.70;22.10;95488.00;;;;5079503;28;20288;-82
2023/08/01 03:47:31;;;;;;;2.37;1.80;;;22.70;70.80;22.10;95498.00;;;;5089663;28;20685;-81
2023/08/01 03:49:58;;;;;;;2.43;1.90;;;22.60;70.90;22.10;95501.00;;;;5067723;28;20204;-82
2023/08/01 03:52:27;;;;;;;2.17;1.90;;;22.60;70.70;22.10;95498.00;;;;5075738;28;20226;-83
2023/08/01 03:54:56;;;;;;;1.87;1.60;;;22.60;70.50;22.10;95506.00;;;;5086080;28;20195;-82
2023/08/01 03:57:25;;;;;;;1.70;1.60;;;22.60;70.90;22.00;95504.00;;;;5082018;28;20226;-81
2023/08/01 03:59:52;;;;;;;2.13;1.93;;;22.60;71.20;22.00;95507.00;;;;5078725;28;20210;-83
2023/08/01 04:02:19;;;;;;;3.03;1.80;;;22.60;70.80;22.00;95504.00;;;;5074771;28;20196;-82
2023/08/01 04:04:49;;;;;;;2.03;1.70;;;22.50;70.60;22.00;95507.00;;;;5076010;28;20718;-83
2023/08/01 04:07:16;;;;;;;2.07;1.90;;;22.50;70.90;21.90;95514.00;;;;5075969;28;20242;-81
2023/08/01 04:09:44;;;;;;;2.03;1.93;;;22.50;71.40;21.90;95516.00;;;;5067343;28;20195;-81
2023/08/01 04:12:11;;;;;;;1.77;1.67;;;22.50;71.40;21.90;95516.00;;;;5080325;28;20219;-81
2023/08/01 04:14:40;;;;;;;2.57;1.87;;;22.40;71.50;21.80;95504.00;;;;5065443;28;20190;-83
2023/08/01 04:17:07;;;;;;;1.70;1.60;;;22.40;71.70;21.80;95509.00;;;;5063823;28;20220;-84
2023/08/01 04:19:34;;;;;;;2.47;1.80;;;22.40;71.70;21.80;95495.00;;;;5072998;28;20204;-82
2023/08/01 04:22:01;;;;;;;1.63;1.53;;;22.40;71.70;21.70;95498.00;;;;5065482;28;20624;-84
2023/08/01 04:24:30;;;;;;;1.87;1.77;;;22.30;71.80;21.70;95497.00;;;;5089398;28;20283;-84
2023/08/01 04:26:58;;;;;;;2.17;1.80;;;22.30;71.90;21.70;95496.00;;;;5066294;28;20302;-84
2023/08/01 04:29:25;;;;;;;1.87;1.77;;;22.30;72.10;21.70;95498.00;;;;5073787;28;20202;-84
2023/08/01 04:31:54;;;;;;;2.10;1.90;;;22.30;72.20;21.70;95496.00;;;;5060544;28;20215;-84
2023/08/01 04:34:21;;;;;;;2.30;1.80;;;22.30;72.40;21.60;95499.00;;;;5074783;28;20206;-84
2023/08/01 04:36:48;;;;;;;1.80;1.53;;;22.20;72.20;21.60;95505.00;;;;5063564;28;20306;-84
2023/08/01 04:39:16;;;;;;;2.00;1.73;;;22.20;73.10;21.60;95504.00;;;;5079145;28;20192;-84
2023/08/01 04:41:43;;;;;;;3.87;2.57;;;22.20;72.40;21.50;95504.00;;;;5080306;28;20214;-85
2023/08/01 04:44:10;;;;;;;2.57;2.37;;;22.20;72.40;21.50;95504.00;;;;5079753;28;20196;-85
2023/08/01 04:46:37;;;;;;;2.27;1.63;;;22.10;72.40;21.50;95503.00;;;;5072014;28;20216;-84
2023/08/01 04:49:05;;;;;;;2.00;1.80;;;22.10;72.90;21.50;95494.00;;;;5080492;28;20191;-85
2023/08/01 04:51:33;;;;;;;2.63;1.70;;;22.10;73.30;21.50;95488.00;;;;5054423;28;20206;-85
2023/08/01 04:54:00;;;;;;;2.03;1.80;;;22.10;73.50;21.40;95478.00;;;;5078975;28;20196;-87
2023/08/01 04:56:27;;;;;;;3.67;1.80;;;22.10;73.80;21.40;95484.00;;;;5071288;28;20334;-87
2023/08/01 04:58:54;;;;;;;1.63;1.53;;;22.00;74.10;21.40;95473.00;;;;5069874;28;20196;-86
2023/08/01 05:01:21;;;;;;;2.30;1.67;;;22.00;74.50;21.30;95464.00;;;;5071688;28;20202;-86
2023/08/01 05:03:48;;;;;;;1.93;1.70;;;22.00;74.80;21.30;95466.00;;;;5076525;28;20200;-86
2023/08/01 05:06:17;;;;;;;2.13;1.93;;;22.00;74.70;21.30;95459.00;;;;5069469;28;20321;-85
2023/08/01 05:08:44;;;;;;;1.90;1.70;;;22.00;75.30;21.30;95463.00;;;;5033106;28;20192;-86
2023/08/01 05:11:11;;;;;;;3.43;2.63;;;21.90;75.30;21.30;95442.00;;;;5085244;28;20199;-86
2023/08/01 05:13:38;;;;;;;2.83;2.20;;;21.90;75.30;21.20;95438.00;;;;5052188;28;20670;-86
2023/08/01 05:16:05;;;;;;;2.60;2.40;;;21.90;75.30;21.20;95434.00;;;;5059713;28;20212;-86
2023/08/01 05:18:33;;;;;;;2.30;2.10;;;21.90;75.50;21.10;95435.00;;;;5057172;28;20221;-85
2023/08/01 05:21:00;;;;;;;2.23;2.03;;;21.80;75.70;21.10;95432.00;;;;5071494;28;20196;-85
2023/08/01 05:23:28;;;;;;;3.47;2.53;;;21.80;76.70;21.10;95427.00;;;;5052810;28;20204;-85
2023/08/01 05:25:55;;;;;;;3.00;2.10;;;21.80;76.10;21.10;95436.00;;;;5068524;28;20223;-85
2023/08/01 05:28:22;;;;;;;3.00;2.70;;;21.70;76.30;21.10;95442.00;;;;5077762;28;20570;-85
2023/08/01 05:30:50;;;;;;;2.33;2.13;;;21.70;76.70;21.10;95437.00;;;;5078748;28;20579;-85
2023/08/01 05:33:17;;;;;;;2.93;2.13;;;21.70;77.00;21.10;95435.00;;;;5053101;28;20730;-85
2023/08/01 05:35:44;;;;;;;1.97;1.80;;;21.70;77.10;21.10;95427.00;;;;5035398;28;20195;-85
2023/08/01 05:38:11;;;;;;;3.93;1.90;;;21.70;77.10;21.10;95433.00;;;;5083840;28;20619;-85
2023/08/01 05:40:40;;;;;;;3.17;2.10;;;21.70;77.40;21.10;95429.00;;;;5053239;28;20196;-85
2023/08/01 05:43:08;;;;;;;4.57;2.13;;;21.70;77.80;21.10;95433.00;;;;5070243;28;20204;-85
2023/08/01 05:45:35;;;;;;;2.00;1.80;;;21.70;77.50;21.10;95438.00;;;;5071370;28;20188;-85
2023/08/01 05:48:03;;;;;;;2.57;2.33;;;21.70;77.50;21.10;95440.00;;;;5080498;28;20267;-85
2023/08/01 05:50:30;;;;;;;2.97;2.13;;;21.70;77.80;21.20;95443.00;;;;5077332;28;20591;-85
2023/08/01 05:52:57;;;;;;;2.40;1.90;;;21.80;77.90;21.20;95435.00;;;;5070833;28;20310;-85
2023/08/01 05:55:24;;;;;;;2.40;2.20;;;21.80;77.60;21.20;95428.00;;;;5071160;28;20228;-85
2023/08/01 05:57:53;;;;;;;2.97;2.10;;;21.80;77.70;21.20;95433.00;;;;5079053;28;20302;-85
2023/08/01 06:00:21;;;;;;;3.47;2.60;;;21.80;77.70;21.20;95421.00;;;;5066610;28;20226;-84
2023/08/01 06:02:48;;;;;;;3.50;2.80;;;21.80;77.60;21.20;95422.00;;;;5060808;28;20200;-85
2023/08/01 06:05:17;;;;;;;4.37;2.83;;;21.80;77.70;21.20;95419.00;;;;5078158;28;20210;-85
2023/08/01 06:07:45;;;;;;;2.33;2.07;;;21.80;77.60;21.30;95403.00;;;;5046743;28;20729;-85
2023/08/01 06:10:13;;;;;;;2.47;2.27;;;21.80;77.50;21.30;95400.00;;;;5060790;28;20230;-85
2023/08/01 06:12:40;;;;;;;2.57;2.30;;;21.90;77.40;21.30;95404.00;;;;5067827;28;20223;-85
2023/08/01 06:15:11;;;;;;;2.50;2.30;;;21.90;77.40;21.30;95395.00;;;;5080205;28;20195;-85
2023/08/01 06:17:38;;;;;;;2.60;2.40;;;21.90;77.80;21.30;95389.00;;;;5064386;28;20266;-84
2023/08/01 06:20:06;;;;;;;4.30;2.87;;;21.90;77.50;21.30;95366.00;;;;5075289;28;20206;-85
2023/08/01 06:22:34;;;;;;;4.47;2.60;;;21.90;77.30;21.40;95363.00;;;;5058880;28;20210;-85
2023/08/01 06:25:01;;;;;;;3.40;2.83;;;21.90;77.20;21.40;95354.00;;;;5055346;28;20671;-85
2023/08/01 06:27:28;;;;;;;2.97;2.40;;;21.90;77.10;21.40;95356.00;;;;5076617;28;20298;-85
2023/08/01 06:29:55;;;;;;;4.23;2.53;;;21.90;77.20;21.30;95342.00;;;;5087955;28;20196;-85
2023/08/01 06:32:24;;;;;;;2.77;2.43;;;21.90;77.30;21.40;95335.00;;;;5080053;28;20697;-84
2023/08/01 06:34:51;;;;;;;2.10;1.93;;;21.90;77.10;21.40;95331.00;;;;5077007;28;20200;-85
2023/08/01 06:37:18;;;;;;;3.20;2.63;;;21.90;77.00;21.30;95339.00;;;;5087275;28;20215;-85
2023/08/01 06:39:46;;;;;;;2.23;2.03;;;21.90;77.10;21.40;95335.00;;;;5078795;28;20728;-84
2023/08/01 06:42:13;;;;;;;2.43;2.20;;;21.90;77.20;21.40;95350.00;;;;5077199;28;20201;-84
2023/08/01 06:44:41;;;;;;;2.87;2.13;;;21.90;77.60;21.40;95349.00;;;;5080632;28;20561;-85
2023/08/01 06:47:08;;;;;;;4.17;2.33;;;21.90;78.00;21.40;95360.00;;;;5057512;28;20587;-85
2023/08/01 06:49:37;;;;;;;2.37;1.83;;;21.90;78.20;21.40;95353.00;;;;5075838;28;20202;-84
2023/08/01 06:52:05;;;;;;;2.40;2.20;;;22.00;78.50;21.50;95354.00;;;;5055986;28;20203;-85
2023/08/01 06:54:33;;;;;;;3.03;2.60;;;22.00;78.50;21.50;95345.00;;;;5056218;28;20220;-85
2023/08/01 06:57:00;;;;;;;2.67;2.47;;;22.00;78.50;21.50;95339.00;;;;5071328;28;20230;-85
2023/08/01 06:59:29;;;;;;;3.27;2.97;;;22.00;78.30;21.50;95332.00;;;;5072300;28;20335;-84
2023/08/01 07:01:57;;;;;;;4.67;2.57;;;22.10;78.20;21.60;95330.00;;;;5057454;28;20704;-85
2023/08/01 07:04:24;;;;;;;2.40;2.20;;;22.10;78.40;21.60;95347.00;;;;5055337;28;20193;-85
2023/08/01 07:06:53;;;;;;;2.70;2.50;;;22.10;78.40;21.60;95337.00;;;;5078863;28;20223;-85
2023/08/01 07:09:20;;;;;;;2.77;2.23;;;22.10;78.20;21.60;95328.00;;;;5077660;28;20211;-85
2023/08/01 07:11:47;;;;;;;3.30;2.40;;;22.20;77.80;21.60;95324.00;;;;5069358;28;20200;-85
2023/08/01 07:14:14;;;;;;;2.80;2.60;;;22.20;77.90;21.70;95317.00;;;;5055024;28;20216;-85
2023/08/01 07:16:43;;;;;;;2.00;1.90;;;22.20;77.90;21.70;95315.00;;;;5073262;28;20216;-85
2023/08/01 07:19:11;;;;;;;2.10;1.90;;;22.20;78.00;21.70;95302.00;;;;5059602;28;20241;-87
2023/08/01 07:21:38;;;;;;;4.30;2.30;;;22.20;77.70;21.80;95301.00;;;;5076288;28;20196;-86
2023/08/01 07:24:07;;;;;;;3.00;2.50;;;22.20;78.30;21.80;95308.00;;;;5072960;28;20202;-85
2023/08/01 07:26:37;;;;;;;3.83;2.60;;;22.30;77.40;21.80;95315.00;;;;5069773;28;20213;-85
2023/08/01 07:29:04;;;;;;;3.00;2.30;;;22.30;77.50;21.80;95316.00;;;;5055513;28;20192;-84
2023/08/01 07:31:31;;;;;;;2.73;2.30;;;22.30;77.70;21.90;95320.00;;;;5075651;28;20188;-81
2023/08/01 07:33:58;;;;;;;3.37;2.23;;;22.40;77.90;21.90;95317.00;;;;5071012;28;20709;-85
2023/08/01 07:36:26;;;;;;;2.87;2.10;;;22.40;77.90;22.00;95322.00;;;;5055565;28;20213;-85
2023/08/01 07:38:56;;;;;;;2.30;2.10;;;22.40;78.50;22.00;95308.00;;;;5072016;28;20204;-85
2023/08/01 07:41:24;;;;;;;2.53;2.27;;;22.50;77.80;22.00;95306.00;;;;5072050;28;20192;-85
2023/08/01 07:43:51;;;;;;;2.37;2.00;;;22.50;77.60;22.00;95303.00;;;;5072451;28;20231;-87
2023/08/01 07:46:18;;;;;;;2.67;2.47;;;22.50;77.00;22.10;95307.00;;;;5056210;28;20216;-84
2023/08/01 07:48:45;;;;;;;1.90;1.73;;;22.50;77.20;22.10;95320.00;;;;5079080;28;20200;-84
2023/08/01 07:51:12;;;;;;;2.80;1.97;;;22.60;77.60;22.20;95328.00;;;;5064050;28;20238;-86
2023/08/01 07:53:40;;;;;;;2.50;2.30;;;22.60;77.40;22.20;95325.00;;;;5067519;28;20238;-85
2023/08/01 07:56:08;;;;;;;2.50;2.30;;;22.60;77.60;22.20;95331.00;;;;5071380;28;20288;-85
2023/08/01 07:58:37;;;;;;;2.57;2.10;;;22.70;77.30;22.30;95317.00;;;;5069243;28;20207;-86
2023/08/01 08:01:05;;;;;;;2.07;1.97;;;22.70;76.80;22.30;95317.00;;;;5073624;28;20234;-85
2023/08/01 08:03:32;;;;;;;2.70;2.50;;;22.70;76.90;22.40;95317.00;;;;5048006;28;20203;-86
2023/08/01 08:06:00;;;;;;;2.53;1.90;;;22.80;77.20;22.50;95338.00;;;;5060822;28;20213;-86
2023/08/01 08:08:27;;;;;;;4.60;2.63;;;22.90;77.60;22.50;95322.00;;;;5062396;28;20641;-83
2023/08/01 08:10:55;;;;;;;2.33;2.13;;;22.90;77.60;22.60;95317.00;;;;5056577;28;20193;-84
2023/08/01 08:13:22;;;;;;;2.23;2.03;;;23.00;76.70;22.70;95309.00;;;;5080497;28;20241;-85
2023/08/01 08:15:51;;;;;;;2.40;2.20;;;23.10;76.00;22.80;95305.00;;;;5049306;28;20212;-86
2023/08/01 08:18:18;;;;;;;2.70;2.20;;;23.10;76.20;22.80;95299.00;;;;5072155;28;20217;-87
2023/08/01 08:20:47;;;;;;;2.50;2.30;;;23.20;76.00;22.90;95292.00;;;;5074469;28;20195;-84
2023/08/01 08:23:14;;;;;;;2.47;2.27;;;23.20;75.00;22.90;95307.00;;;;5074126;28;20244;-85
2023/08/01 08:25:44;;;;;;;2.20;2.00;;;23.30;74.40;22.90;95321.00;;;;5075666;28;20197;-85
2023/08/01 08:28:12;;;;;;;2.43;1.93;;;23.30;74.40;22.90;95327.00;;;;5094758;28;20199;-85
2023/08/01 08:30:40;;;;;;;2.20;2.00;;;23.30;74.70;23.00;95337.00;;;;5072043;28;20203;-85
2023/08/01 08:33:10;;;;;;;2.00;1.90;;;23.40;74.40;23.00;95327.00;;;;5067758;28;20233;-84
2023/08/01 08:35:38;;;;;;;2.23;2.03;;;23.40;74.40;23.00;95329.00;;;;5055393;28;20575;-85
2023/08/01 08:38:05;;;;;;;2.10;1.70;;;23.40;73.90;23.00;95332.00;;;;5070977;28;20205;-85
2023/08/01 08:40:34;;;;;;;2.10;1.90;;;23.40;74.10;23.00;95343.00;;;;5071960;28;20213;-86
2023/08/01 08:43:04;;;;;;;2.33;2.13;;;23.40;74.90;23.00;95341.00;;;;5054305;28;20214;-86
2023/08/01 08:45:36;;;;;;;2.10;1.90;;;23.40;73.40;23.00;95348.00;;;;5075270;28;20197;-86
2023/08/01 08:48:13;;;;;;;1.90;1.80;;;23.40;72.30;23.00;95368.00;;;;5072002;28;20549;-85
2023/08/01 08:50:42;;;;;;;4.70;1.97;;;23.40;73.00;23.00;95364.00;;;;5071747;28;20210;-87
2023/08/01 08:53:12;;;;;;;1.77;1.63;;;23.50;73.30;23.00;95370.00;;;;5067091;28;20309;-86
2023/08/01 08:55:41;;;;;;;2.10;1.90;;;23.50;73.20;23.00;95366.00;;;;5048360;28;20652;-85
2023/08/01 08:58:09;;;;;;;2.10;1.90;;;23.50;73.00;23.00;95363.00;;;;5047105;28;20202;-85
2023/08/01 09:00:38;;;;;;;2.33;2.13;;;23.50;73.00;23.00;95365.00;;;;5069664;28;20260;-85
2023/08/01 09:03:05;;;;;;;2.27;2.00;;;23.40;72.80;23.00;95371.00;;;;5050580;28;20594;-85
2023/08/01 09:05:45;;;;;;;2.60;2.20;;;23.40;72.40;23.00;95363.00;;;;5063086;28;20201;-86
2023/08/01 09:08:20;;;;;;;3.43;2.10;;;23.50;71.30;23.10;95367.00;;;;5065900;28;20690;-87
2023/08/01 09:10:48;;;;;;;2.70;2.00;;;23.50;70.70;23.10;95364.00;;;;5079395;28;20188;-85
2023/08/01 09:13:15;;;;;;;2.20;2.00;;;23.50;70.90;23.10;95371.00;;;;5054655;28;20309;-85
2023/08/01 09:15:44;;;;;;;1.63;1.53;;;23.50;70.20;23.10;95376.00;;;;5076136;28;20202;-86
2023/08/01 09:18:11;;;;;;;2.13;1.93;;;23.50;69.60;23.10;95378.00;;;;5058229;28;20273;-84
2023/08/01 09:20:46;;;;;;;2.00;1.90;;;23.50;69.70;23.10;95378.00;;;;5060615;28;20195;-85
2023/08/01 09:23:14;;;;;;;1.60;1.50;;;23.50;69.40;23.10;95375.00;;;;5073278;28;20580;-85
2023/08/01 09:25:42;;;;;;;2.53;2.00;;;23.50;69.50;23.10;95379.00;;;;5072367;28;20303;-85
2023/08/01 09:28:21;;;;;;;2.67;1.70;;;23.50;69.60;23.20;95382.00;;;;5071944;28;20212;-85
2023/08/01 09:30:51;;;;;;;2.00;1.80;;;23.50;68.50;23.20;95370.00;;;;5071789;28;20268;-85
2023/08/01 09:33:19;;;;;;;2.17;1.53;;;23.50;69.90;23.30;95383.00;;;;5076371;28;20309;-85
2023/08/01 09:35:50;;;;;;;2.10;1.87;;;23.60;69.80;23.30;95383.00;;;;5054369;28;20196;-86
2023/08/01 09:38:18;;;;;;;2.00;1.80;;;23.60;69.20;23.40;95369.00;;;;5055483;28;20195;-85
2023/08/01 09:40:46;;;;;;;2.07;1.73;;;23.70;69.50;23.50;95380.00;;;;5071695;28;20591;-85
2023/08/01 09:43:15;;;;;;;1.80;1.70;;;23.70;69.40;23.60;95390.00;;;;5069091;28;20199;-87
2023/08/01 09:45:52;;;;;;;2.43;1.97;;;23.90;70.00;23.60;95383.00;;;;5058491;28;20694;-85
2023/08/01 09:48:26;;;;;;;2.90;2.17;;;23.90;69.10;23.70;95380.00;;;;5053852;28;20196;-86
2023/08/01 09:51:06;;;;;;;3.10;2.20;;;24.00;68.70;23.70;95390.00;;;;5060734;28;20676;-87
2023/08/01 09:53:34;;;;;;;2.03;1.80;;;24.00;67.90;23.70;95387.00;;;;5079190;28;20228;-86
2023/08/01 09:56:02;;;;;;;1.97;1.60;;;24.00;68.20;23.70;95384.00;;;;5075973;28;20216;-86
2023/08/01 09:58:34;;;;;;;2.47;1.80;;;24.10;67.80;23.80;95386.00;;;;5074444;28;20679;-86
2023/08/01 10:01:02;;;;;;;2.13;1.67;;;24.10;67.60;23.80;95383.00;;;;5076284;28;20195;-86
2023/08/01 10:03:31;;;;;;;2.10;1.87;;;24.20;67.40;23.90;95380.00;;;;5057532;28;20568;-86
2023/08/01 10:06:00;;;;;;;2.63;1.73;;;24.20;67.60;24.00;95381.00;;;;5073887;28;20215;-86
2023/08/01 10:08:32;;;;;;;2.00;1.87;;;24.30;67.50;24.00;95368.00;;;;5057509;28;20192;-87
2023/08/01 10:10:59;;;;;;;1.97;1.70;;;24.30;67.80;24.00;95361.00;;;;5075479;28;20199;-85
2023/08/01 10:13:28;;;;;;;2.10;1.90;;;24.40;67.60;24.10;95363.00;;;;5071065;28;20191;-85
2023/08/01 10:15:56;;;;;;;2.20;1.60;;;24.40;67.60;24.20;95360.00;;;;5078903;28;20873;-85
2023/08/01 10:18:24;;;;;;;1.83;1.73;;;24.50;67.40;24.20;95364.00;;;;5049682;28;20211;-86
2023/08/01 10:20:58;;;;;;;4.03;2.10;;;24.50;66.80;24.20;95367.00;;;;5057910;28;20210;-91
2023/08/01 10:23:28;;;;;;;2.27;1.50;;;24.60;66.00;24.20;95367.00;;;;5080350;28;20241;-86
2023/08/01 10:25:56;;;;;;;2.23;1.93;;;24.60;64.80;24.20;95378.00;;;;5083376;28;20229;-84
2023/08/01 10:28:33;;;;;;;3.10;2.10;;;24.60;64.40;24.10;95400.00;;;;5072037;28;20247;-87
2023/08/01 10:31:13;;;;;;;2.30;2.00;;;24.60;64.60;24.10;95411.00;;;;5069615;28;20511;-87
2023/08/01 10:33:46;;;;;;;2.00;1.80;;;24.60;65.20;24.00;95431.00;;;;5082443;28;20262;-85
2023/08/01 10:36:18;;;;;;;3.00;1.60;;;24.50;66.00;23.90;95441.00;;;;5084614;28;20712;-84
2023/08/01 10:38:53;;;;;;;2.23;1.90;;;24.40;66.10;23.70;95436.00;;;;5064677;28;20821;-85
2023/08/01 10:41:27;;;;;;;2.10;1.70;;;24.30;66.70;23.50;95412.00;;;;5082424;28;20187;-85
2023/08/01 10:44:06;;;;;;;1.90;1.80;;;24.20;67.10;23.30;95409.00;;;;5082077;28;20203;-85
2023/08/01 10:46:51;;;;;;;2.73;1.90;;;24.00;68.30;23.10;95400.00;;;;5087434;28;20225;-88
2023/08/01 10:49:20;;;;;;;1.87;1.50;;;23.90;68.20;23.00;95385.00;;;;5037342;28;20199;-84
2023/08/01 10:51:47;;;;;;;1.67;1.50;;;23.70;68.10;22.90;95371.00;;;;5070700;28;20203;-83
2023/08/01 10:54:24;;;;;;;1.30;1.20;;;23.60;68.30;22.70;95361.00;;;;5076458;28;20318;-85
2023/08/01 10:56:55;;;;;;;1.73;1.40;;;23.50;68.50;22.60;95341.00;;;;5083542;28;20222;-86
2023/08/01 10:59:23;;;;;;;1.50;1.30;;;23.30;68.60;22.50;95337.00;;;;5084680;28;20192;-85